createdAt,value
2019-04-27T00:00:05.019Z,12.29
2019-04-27T00:05:26.694Z,12.18
2019-04-27T00:10:43.652Z,12.16
2019-04-27T00:16:13.476Z,12.16
2019-04-27T00:21:34.037Z,12.12
2019-04-27T00:26:41.271Z,12.07
2019-04-27T00:31:48.571Z,12.07
2019-04-27T00:37:03.688Z,12.07
2019-04-27T00:42:13.487Z,11.94
2019-04-27T00:47:19.511Z,11.94
2019-04-27T00:52:26.593Z,11.87
2019-04-27T00:57:53.635Z,11.81
2019-04-27T01:03:03.797Z,11.81
2019-04-27T01:08:11.159Z,11.79
2019-04-27T01:13:18.562Z,11.83
2019-04-27T01:18:24.536Z,11.83
2019-04-27T01:23:32.572Z,11.82
2019-04-27T01:28:59.196Z,11.82
2019-04-27T01:34:06.661Z,11.80
2019-04-27T01:39:15.031Z,11.78
2019-04-27T01:44:22.469Z,11.78
2019-04-27T01:49:29.660Z,11.81
2019-04-27T01:54:36.751Z,11.84
2019-04-27T01:59:43.603Z,11.88
2019-04-27T02:05:10.268Z,11.90
2019-04-27T02:10:19.138Z,11.94
2019-04-27T02:15:26.595Z,11.94
2019-04-27T02:20:33.586Z,12.00
2019-04-27T02:25:40.584Z,12.01
2019-04-27T02:31:24.852Z,12.03
2019-04-27T02:36:30.847Z,12.03
2019-04-27T02:41:39.967Z,12.03
2019-04-27T02:46:45.965Z,11.99
2019-04-27T02:52:13.614Z,11.99
2019-04-27T02:57:19.951Z,12.03
2019-04-27T03:02:33.434Z,11.98
2019-04-27T03:07:42.705Z,11.99
2019-04-27T03:12:55.256Z,12.02
2019-04-27T03:18:25.283Z,12.04
2019-04-27T03:23:32.448Z,11.95
2019-04-27T03:28:41.097Z,11.95
2019-04-27T03:33:50.635Z,11.96
2019-04-27T03:38:56.244Z,11.93
2019-04-27T03:44:03.597Z,11.78
2019-04-27T03:49:20.355Z,11.73
2019-04-27T03:54:54.041Z,11.73
2019-04-27T04:00:14.259Z,11.70
2019-04-27T04:05:20.292Z,11.68
2019-04-27T04:10:29.280Z,11.66
2019-04-27T04:15:51.906Z,11.60
2019-04-27T04:21:00.460Z,11.60
2019-04-27T04:26:05.861Z,11.65
2019-04-27T04:31:13.840Z,11.68
2019-04-27T04:36:22.571Z,11.72
2019-04-27T04:41:51.337Z,11.76
2019-04-27T04:47:05.420Z,11.81
2019-04-27T04:52:12.592Z,11.84
2019-04-27T04:57:21.918Z,11.93
2019-04-27T05:02:29.358Z,11.93
2019-04-27T05:07:36.459Z,11.95
2019-04-27T05:12:43.587Z,12.00
2019-04-27T05:17:51.006Z,12.10
2019-04-27T05:22:59.396Z,12.10
2019-04-27T05:28:06.605Z,12.14
2019-04-27T05:33:13.577Z,12.21
2019-04-27T05:38:20.653Z,12.37
2019-04-27T05:43:33.407Z,12.52
2019-04-27T05:48:40.599Z,12.52
2019-04-27T05:53:49.449Z,12.81
2019-04-27T05:58:56.564Z,12.81
2019-04-27T06:04:04.624Z,12.97
2019-04-27T06:09:11.567Z,13.04
2019-04-27T06:14:19.193Z,13.04
2019-04-27T06:19:26.487Z,13.21
2019-04-27T06:24:33.765Z,13.28
2019-04-27T06:29:40.946Z,13.30
2019-04-27T06:34:48.934Z,13.48
2019-04-27T06:39:56.462Z,13.48
2019-04-27T06:45:03.513Z,13.65
2019-04-27T06:50:11.247Z,13.92
2019-04-27T06:55:18.918Z,14.02
2019-04-27T07:00:26.274Z,14.04
2019-04-27T07:05:33.578Z,14.03
2019-04-27T07:10:40.590Z,14.13
2019-04-27T07:15:48.557Z,14.34
2019-04-27T07:20:55.566Z,14.45
2019-04-27T07:26:02.581Z,14.45
2019-04-27T07:31:09.714Z,14.56
2019-04-27T07:36:16.742Z,14.56
2019-04-27T07:41:23.610Z,14.68
2019-04-27T07:46:31.848Z,15.07
2019-04-27T07:51:39.439Z,15.07
2019-04-27T07:56:46.605Z,15.33
2019-04-27T08:01:53.604Z,15.80
2019-04-27T08:07:00.586Z,15.85
2019-04-27T08:12:07.598Z,15.80
2019-04-27T08:17:14.506Z,15.86
2019-04-27T08:22:21.467Z,15.86
2019-04-27T08:27:40.751Z,15.92
2019-04-27T08:32:49.713Z,16.28
2019-04-27T08:37:57.260Z,16.28
2019-04-27T08:43:04.613Z,16.35
2019-04-27T08:48:11.603Z,16.57
2019-04-27T08:53:18.726Z,16.69
2019-04-27T08:58:25.585Z,16.69
2019-04-27T09:03:32.465Z,17.19
2019-04-27T09:08:45.279Z,17.19
2019-04-27T09:17:53.923Z,17.91
2019-04-27T09:22:59.850Z,18.18
2019-04-27T09:28:08.697Z,18.21
2019-04-27T09:33:15.724Z,18.21
2019-04-27T09:38:22.630Z,18.25
2019-04-27T09:43:30.642Z,18.17
2019-04-27T09:48:37.623Z,18.16
2019-04-27T09:53:45.861Z,18.36
2019-04-27T09:58:53.459Z,18.36
2019-04-27T10:04:00.488Z,18.55
2019-04-27T10:09:09.602Z,18.94
2019-04-27T10:14:16.526Z,19.30
2019-04-27T10:19:31.124Z,19.30
2019-04-27T10:24:31.343Z,19.85
2019-04-27T10:29:37.332Z,20.27
2019-04-27T10:34:44.410Z,20.72
2019-04-27T10:39:51.584Z,21.06
2019-04-27T10:44:58.620Z,20.87
2019-04-27T10:50:06.102Z,20.74
2019-04-27T10:55:13.598Z,20.74
2019-04-27T11:00:36.790Z,20.95
2019-04-27T11:06:01.935Z,20.95
2019-04-27T11:11:09.239Z,21.38
2019-04-27T11:20:30.515Z,20.66
2019-04-27T11:25:37.455Z,20.86
2019-04-27T11:30:44.557Z,20.93
2019-04-27T11:35:57.259Z,21.23
2019-04-27T11:41:04.497Z,21.68
2019-04-27T11:46:11.591Z,21.56
2019-04-27T11:51:18.562Z,22.25
2019-04-27T11:56:27.406Z,22.65
2019-04-27T12:01:35.872Z,22.65
2019-04-27T12:06:43.068Z,22.97
2019-04-27T12:15:07.952Z,24.72
2019-04-27T12:20:15.930Z,24.72
2019-04-27T12:25:24.532Z,24.82
2019-04-27T12:30:37.024Z,24.82
2019-04-27T12:35:46.258Z,24.88
2019-04-27T12:40:53.426Z,24.54
2019-04-27T12:46:00.491Z,24.22
2019-04-27T12:51:08.913Z,23.53
2019-04-27T12:56:33.571Z,22.63
2019-04-27T13:01:40.561Z,21.16
2019-04-27T13:06:47.490Z,21.16
2019-04-27T13:11:56.027Z,20.43
2019-04-27T13:17:03.452Z,19.90
2019-04-27T13:22:22.950Z,19.52
2019-04-27T13:27:30.074Z,19.17
2019-04-27T13:32:37.459Z,19.00
2019-04-27T13:37:44.570Z,18.87
2019-04-27T13:43:13.304Z,18.67
2019-04-27T13:48:42.343Z,18.67
2019-04-27T13:53:49.463Z,18.57
2019-04-27T13:58:58.374Z,18.50
2019-04-27T14:04:07.026Z,18.52
2019-04-27T14:09:14.498Z,18.64
2019-04-27T14:14:21.495Z,18.81
2019-04-27T14:19:28.459Z,19.00
2019-04-27T14:24:41.861Z,19.23
2019-04-27T14:29:49.098Z,19.49
2019-04-27T14:34:59.205Z,19.61
2019-04-27T14:40:08.430Z,19.68
2019-04-27T14:45:18.823Z,19.97
2019-04-27T14:50:26.429Z,20.09
2019-04-27T14:55:33.449Z,20.16
2019-04-27T15:00:40.436Z,20.16
2019-04-27T15:05:49.686Z,20.16
2019-04-27T15:10:56.456Z,20.14
2019-04-27T15:16:06.684Z,20.21
2019-04-27T15:21:13.255Z,20.21
2019-04-27T15:26:22.916Z,20.30
2019-04-27T15:31:33.288Z,20.34
2019-04-27T15:48:03.902Z,20.62
2019-04-27T15:53:12.616Z,21.03
2019-04-27T15:58:25.255Z,21.79
2019-04-27T16:03:31.258Z,22.49
2019-04-27T16:08:39.830Z,22.83
2019-04-27T16:13:44.914Z,23.39
2019-04-27T16:18:53.554Z,24.23
2019-04-27T16:24:00.577Z,25.79
2019-04-27T16:29:08.262Z,25.79
2019-04-27T16:34:15.764Z,26.75
2019-04-27T16:39:22.701Z,27.37
2019-04-27T16:44:29.623Z,26.50
2019-04-27T16:49:38.095Z,25.24
2019-04-27T16:54:45.429Z,25.24
2019-04-27T17:05:01.630Z,23.11
2019-04-27T17:10:09.489Z,21.68
2019-04-27T17:12:40.261Z,24.00
2019-04-27T17:18:59.624Z,21.14
2019-04-27T17:24:04.462Z,20.85
2019-04-27T17:29:16.709Z,20.46
2019-04-27T17:34:25.273Z,20.14
2019-04-27T17:39:32.584Z,19.87
2019-04-27T17:44:39.562Z,19.68
2019-04-27T17:49:46.594Z,19.46
2019-04-27T17:54:53.562Z,19.07
2019-04-27T18:00:03.348Z,18.85
2019-04-27T18:05:13.866Z,18.85
2019-04-27T18:10:24.314Z,18.74
2019-04-27T18:15:31.587Z,18.54
2019-04-27T18:20:38.588Z,18.18
2019-04-27T18:25:51.485Z,17.99
2019-04-27T18:31:16.085Z,17.99
2019-04-27T18:36:24.600Z,17.78
2019-04-27T18:41:31.581Z,17.35
2019-04-27T18:46:38.576Z,17.18
2019-04-27T18:51:57.933Z,17.00
2019-04-27T18:57:04.792Z,17.00
2019-04-27T19:02:10.592Z,16.72
2019-04-27T19:07:17.590Z,16.60
2019-04-27T19:12:24.636Z,16.45
2019-04-27T19:17:31.604Z,16.46
2019-04-27T19:22:38.733Z,16.46
2019-04-27T19:28:03.268Z,16.46
2019-04-27T19:33:10.590Z,16.49
2019-04-27T19:38:18.623Z,16.38
2019-04-27T19:43:25.607Z,16.38
2019-04-27T19:48:32.604Z,16.16
2019-04-27T19:53:39.459Z,16.06
2019-04-27T19:58:51.260Z,16.06
2019-04-27T20:04:03.431Z,15.97
2019-04-27T20:09:25.692Z,15.89
2019-04-27T20:14:51.282Z,15.67
2019-04-27T20:19:58.956Z,15.67
2019-04-27T20:25:06.697Z,15.52
2019-04-27T20:30:14.442Z,15.18
2019-04-27T20:35:21.967Z,15.18
2019-04-27T20:40:31.487Z,15.02
2019-04-27T20:45:38.580Z,14.88
2019-04-27T20:50:45.518Z,14.61
2019-04-27T20:55:52.470Z,14.61
2019-04-27T21:01:01.547Z,14.51
2019-04-27T21:06:16.687Z,14.29
2019-04-27T21:11:23.657Z,14.20
2019-04-27T21:16:31.368Z,14.08
2019-04-27T21:21:38.611Z,14.08
2019-04-27T21:26:45.683Z,13.97
2019-04-27T21:31:52.605Z,13.89
2019-04-27T21:37:01.052Z,13.79
2019-04-27T21:42:08.462Z,13.70
2019-04-27T21:47:15.526Z,13.70
2019-04-27T21:52:28.497Z,13.65
2019-04-27T21:57:35.594Z,13.61
2019-04-27T22:02:42.703Z,13.51
2019-04-27T22:07:49.614Z,13.49
2019-04-27T22:12:56.604Z,13.46
2019-04-27T22:18:03.601Z,13.39
2019-04-27T22:23:19.297Z,13.35
2019-04-27T22:28:26.594Z,13.35
2019-04-27T22:33:33.477Z,13.28
2019-04-27T22:38:41.358Z,13.28
2019-04-27T22:44:01.256Z,13.22
2019-04-27T22:49:08.239Z,13.10
2019-04-27T22:54:15.626Z,13.10
2019-04-27T22:59:37.273Z,13.07
2019-04-27T23:04:49.073Z,13.07
2019-04-27T23:09:57.616Z,13.09
2019-04-27T23:15:06.504Z,13.16
2019-04-27T23:20:13.661Z,13.18
2019-04-27T23:25:20.662Z,13.19
2019-04-27T23:30:47.610Z,13.18
2019-04-27T23:35:54.627Z,13.18
2019-04-27T23:41:01.877Z,13.15
2019-04-27T23:46:11.450Z,13.15
2019-04-27T23:51:36.285Z,13.11
2019-04-27T23:56:43.475Z,13.01
